WetterOnline ( https://www.wetteronline.de )

Wetter aktuell Gro��enaspe

Aktuelles Wetter: Quickborn (17m)

6-stündlich | Neueste Meldungen
Ortszeit Temperatur Wetter
So, 22.05. 8:00 11.9° C bewölkt
So, 22.05. 2:00 10.5° C bedeckt
Sa, 21.05. 20:00 13.4° C leicht bewölkt
Sa, 21.05. 14:00 15.0° C bewölkt
Sa, 21.05. 8:00 11.7° C leichter Regen
Sa, 21.05. 2:00 10.9° C bedeckt
Fr, 20.05. 20:00 16.8° C leichter Regen
Fr, 20.05. 14:00 17.6° C wolkig
Ortszeit Temperatur Wetter
So, 22.05. 8:30 12.3° C bewölkt
So, 22.05. 8:20 12.3° C bewölkt
So, 22.05. 8:10 12.0° C bewölkt
So, 22.05. 8:00 11.9° C bewölkt
So, 22.05. 7:50 11.9° C bewölkt
So, 22.05. 7:40 11.5° C bewölkt
So, 22.05. 7:30 11.2° C bedeckt
So, 22.05. 7:00 10.8° C bewölkt
So, 22.05. 6:30 10.2° C wolkig
So, 22.05. 6:00 9.8° C bewölkt
So, 22.05. 5:30 9.8° C bewölkt
Ortszeit Relative Feuchte Sichtweite
So, 22.05. 8:00 89% 35 km
So, 22.05. 2:00 90% 28 km
Sa, 21.05. 20:00 74% 45 km
Sa, 21.05. 14:00 70% 35 km
Sa, 21.05. 8:00 89% 11 km
Sa, 21.05. 2:00 91% 40 km
Fr, 20.05. 20:00 73% 30 km
Fr, 20.05. 14:00 64% 45 km
Ortszeit Relative Feuchte Sichtweite
So, 22.05. 8:30 87% 30 km
So, 22.05. 8:20 87% -
So, 22.05. 8:10 88% -
So, 22.05. 8:00 89% 35 km
So, 22.05. 7:50 89% -
So, 22.05. 7:40 91% -
So, 22.05. 7:30 92% 27 km
So, 22.05. 7:00 92% 26 km
So, 22.05. 6:30 94% 24 km
So, 22.05. 6:00 94% 22 km
So, 22.05. 5:30 93% 21 km
Ortszeit Niederschlagsmenge Niederschlagsart
So, 22.05. 8:00 0.0 l/m2 in 12 Std. -
So, 22.05. 2:00 0.0 l/m2 in 6 Std. -
Sa, 21.05. 20:00 2 l/m2 in 12 Std. -
Sa, 21.05. 14:00 2 l/m2 in 6 Std. Regen
Sa, 21.05. 8:00 5 l/m2 in 12 Std. Regen
Sa, 21.05. 2:00 5 l/m2 in 6 Std. Regen
Fr, 20.05. 20:00 0.2 l/m2 in 12 Std. Regen
Fr, 20.05. 14:00 0.0 l/m2 in 6 Std. -
Ortszeit Niederschlagsmenge Niederschlagsart
So, 22.05. 8:30 0.0 l/m2 in 1 Std. -
So, 22.05. 8:20 keine Meldung -
So, 22.05. 8:10 keine Meldung -
So, 22.05. 8:00 0.0 l/m2 in 1 Std. -
So, 22.05. 7:50 keine Meldung -
So, 22.05. 7:40 keine Meldung -
So, 22.05. 7:30 0.0 l/m2 in 1 Std. -
So, 22.05. 7:00 0.0 l/m2 in 1 Std. -
So, 22.05. 6:30 0.0 l/m2 in 1 Std. -
So, 22.05. 6:00 0.0 l/m2 in 1 Std. -
So, 22.05. 5:30 0.0 l/m2 in 1 Std. -
Ortszeit Stärke Spitze Richtung
km/h Bft. km/h Grad Sektor
So, 22.05. 8:00 6 1 13 250° W
So, 22.05. 2:00 7 2 47 270° W
Sa, 21.05. 20:00 22 4 54 290° W
Sa, 21.05. 14:00 30 5 57 290° W
Sa, 21.05. 8:00 17 3 31 230° SW
Sa, 21.05. 2:00 17 3 52 280° W
Fr, 20.05. 20:00 11 2 22 90° O
Fr, 20.05. 14:00 7 2 25 250° W
Ortszeit Stärke Spitze Richtung
km/h Bft. km/h Grad Sektor
So, 22.05. 8:30 4 1 11 230° SW
So, 22.05. 8:20 4 1 - 230° SW
So, 22.05. 8:10 4 1 - 260° W
So, 22.05. 8:00 6 1 9 250° W
So, 22.05. 7:50 6 1 - 250° W
So, 22.05. 7:40 4 1 - 270° W
So, 22.05. 7:30 6 1 9 260° W
So, 22.05. 7:00 6 1 9 270° W
So, 22.05. 6:30 6 1 9 260° W
So, 22.05. 6:00 6 1 11 250° W
So, 22.05. 5:30 7 2 11 250° W
Ortszeit Untergrenze Bedeckung Gattung
total tief tief mittel hoch
So, 22.05. 8:00 630 m 7/8 7/8 - - -
So, 22.05. 2:00 3600 m 8/8 8/8 - - -
Sa, 21.05. 20:00 660 m 3/8 2/8 - - -
Sa, 21.05. 14:00 810 m 7/8 7/8 - - -
Sa, 21.05. 8:00 300 m 7/8 7/8 - - -
Sa, 21.05. 2:00 1140 m 8/8 8/8 - - -
Fr, 20.05. 20:00 30 m 8/8 8/8 - - -
Fr, 20.05. 14:00 900 m 8/8 2/8 - - -
Ortszeit Bedeckungsgrad in Achtel und Wolkenuntergrenze
So, 22.05. 8:30 4(330m) 7(690m) 7(870m)
So, 22.05. 8:20 4(330m) 7(690m) 7(870m)
So, 22.05. 8:10 7
So, 22.05. 8:00 2(630m) 7(810m) 7(3300m)
So, 22.05. 7:50 2(630m) 7(810m) 7(3300m)
So, 22.05. 7:40 7
So, 22.05. 7:30 3(540m) 8(750m) 8(3300m)
So, 22.05. 7:00 3(540m) 7(780m) 8(3300m)
So, 22.05. 6:30 1(60m) 8(3600m) 8(4200m)
So, 22.05. 6:00 6(60m) 8(3600m) 8(4200m)
So, 22.05. 5:30 7(60m) 8(3300m) 8(4200m)
Ortszeit Luftdruck NN (hPa) Tendenz (hPa in 3 Std.)
So, 22.05. 8:00 1018 + 0,1
So, 22.05. 2:00 1018 - 1,0
Sa, 21.05. 20:00 1018 + 0,3
Sa, 21.05. 14:00 1017 + 2,3
Sa, 21.05. 8:00 1014 - 0,6
Sa, 21.05. 2:00 1013 + 5,4
Fr, 20.05. 20:00 1010 - 4,7
Fr, 20.05. 14:00 1019 - 1,9
Ortszeit Luftdruck NN (hPa) Tendenz (hPa in 3 Std.)
So, 22.05. 8:30 1018 0,0
So, 22.05. 8:20 1018 keine Meldung
So, 22.05. 8:10 1018 keine Meldung
So, 22.05. 8:00 1018 + 0,1
So, 22.05. 7:50 1018 keine Meldung
So, 22.05. 7:40 1018 keine Meldung
So, 22.05. 7:30 1018 0,0
So, 22.05. 7:00 1018 + 0,1
So, 22.05. 6:30 1018 - 0,2
So, 22.05. 6:00 1018 - 0,1
So, 22.05. 5:30 1018 - 0,4
Ortszeit Schneehöhe (cm)
So, 22.05. 8:00 0
So, 22.05. 2:00 0
Sa, 21.05. 20:00 0
Sa, 21.05. 14:00 0
Sa, 21.05. 8:00 0
Sa, 21.05. 2:00 0
Fr, 20.05. 20:00 0
Fr, 20.05. 14:00 0
Ortszeit Schneehöhe (cm)
So, 22.05. 8:30 0
So, 22.05. 8:20 0
So, 22.05. 8:10 0
So, 22.05. 8:00 0
So, 22.05. 7:50 0
So, 22.05. 7:40 0
So, 22.05. 7:30 0
So, 22.05. 7:00 0
So, 22.05. 6:30 0
So, 22.05. 6:00 0
So, 22.05. 5:30 0
Link zu dieser Seite / Seite empfehlen

Das Wetter in ...